Time;durP1;ratioP1;P1;durP2;ratioP2;P2;SDS_P1;SDS_P2;PMS_P1;PMS_P2;Temp;Humidity;BMP_temperature;BMP_pressure;BME280_temperature;BME280_humidity;BME280_pressure;Samples;Min_cycle;Max_cycle;Signal;HPM_P1;HPM_P2
2023/01/14 00:01:21;;;;;;;19.38;1.80;;;5.60;99.90;;;;;;5042280;28;20041;-44
2023/01/14 00:03:47;;;;;;;22.45;2.72;;;5.30;99.90;;;;;;5046982;28;20364;-45
2023/01/14 00:06:18;;;;;;;26.63;2.88;;;5.50;99.90;;;;;;5046192;28;20045;-44
2023/01/14 00:08:44;;;;;;;21.65;2.60;;;6.30;99.90;;;;;;5046650;28;20048;-44
2023/01/14 00:11:11;;;;;;;32.70;3.55;;;6.30;99.90;;;;;;5046646;28;20044;-43
2023/01/14 00:13:38;;;;;;;13.55;1.83;;;5.80;99.90;;;;;;5046655;28;20037;-44
2023/01/14 00:16:07;;;;;;;29.27;2.65;;;6.50;99.90;;;;;;5046366;28;20064;-43
2023/01/14 00:18:34;;;;;;;24.38;3.22;;;5.80;99.90;;;;;;5046461;28;20052;-44
2023/01/14 00:21:06;;;;;;;22.13;3.42;;;6.90;99.90;;;;;;5046509;28;20477;-44
2023/01/14 00:23:34;;;;;;;21.58;2.92;;;5.90;99.90;;;;;;5046085;28;20048;-46
2023/01/14 00:26:01;;;;;;;28.38;4.38;;;6.70;99.90;;;;;;5046605;28;20486;-44
2023/01/14 00:28:27;;;;;;;23.00;3.83;;;6.20;99.90;;;;;;5046430;28;20099;-44
2023/01/14 00:30:52;;;;;;;24.88;2.80;;;6.10;99.90;;;;;;5046813;28;20036;-44
2023/01/14 00:33:18;;;;;;;18.40;2.20;;;6.10;99.90;;;;;;5046746;28;20036;-45
2023/01/14 00:35:52;;;;;;;21.17;2.58;;;7.10;99.90;;;;;;5046460;28;20044;-44
2023/01/14 00:38:17;;;;;;;20.17;3.42;;;6.10;99.90;;;;;;5046880;28;20132;-44
2023/01/14 00:40:43;;;;;;;17.55;1.58;;;6.90;99.90;;;;;;5046582;28;20163;-44
2023/01/14 00:43:09;;;;;;;18.90;2.15;;;6.70;99.90;;;;;;5046405;28;20052;-44
2023/01/14 00:45:34;;;;;;;29.08;3.67;;;5.80;99.90;;;;;;5046179;28;20037;-46
2023/01/14 00:48:00;;;;;;;14.65;1.52;;;5.80;99.90;;;;;;5046448;28;20102;-44
2023/01/14 00:50:25;;;;;;;24.75;2.75;;;5.70;99.90;;;;;;5046316;28;20056;-46
2023/01/14 00:52:51;;;;;;;22.27;1.80;;;5.60;99.90;;;;;;5046267;28;20053;-44
2023/01/14 00:55:17;;;;;;;17.60;2.05;;;5.70;99.90;;;;;;5045687;28;20441;-44
2023/01/14 00:57:42;;;;;;;16.23;2.97;;;5.60;99.90;;;;;;5045733;28;20051;-44
2023/01/14 01:00:09;;;;;;;19.15;1.98;;;6.00;99.90;;;;;;5046067;28;20049;-44
2023/01/14 01:02:35;;;;;;;23.95;2.47;;;5.50;99.90;;;;;;5045725;28;20056;-44
2023/01/14 01:05:00;;;;;;;25.02;3.03;;;5.40;99.90;;;;;;5045871;28;20037;-44
2023/01/14 01:07:26;;;;;;;25.85;2.83;;;5.70;99.90;;;;;;5045812;28;20049;-46
2023/01/14 01:09:51;;;;;;;17.35;1.75;;;5.40;99.90;;;;;;5045984;28;20036;-44
2023/01/14 01:12:17;;;;;;;29.50;4.05;;;5.40;99.90;;;;;;5044171;28;20048;-45
2023/01/14 01:14:43;;;;;;;22.15;2.13;;;5.30;99.90;;;;;;5045422;28;20060;-44
2023/01/14 01:17:08;;;;;;;18.65;2.22;;;5.50;99.90;;;;;;5045488;28;20506;-44
2023/01/14 01:19:34;;;;;;;17.08;2.15;;;5.30;99.90;;;;;;5045919;28;20779;-43
2023/01/14 01:22:00;;;;;;;22.10;2.40;;;5.30;99.90;;;;;;5046149;28;20037;-44
2023/01/14 01:24:25;;;;;;;18.52;1.90;;;5.20;99.90;;;;;;5045487;28;20081;-44
2023/01/14 01:26:51;;;;;;;27.73;3.78;;;5.20;99.90;;;;;;5045694;28;20090;-44
2023/01/14 01:29:17;;;;;;;23.73;3.65;;;5.20;99.90;;;;;;5046244;28;20076;-43
2023/01/14 01:31:42;;;;;;;13.82;1.90;;;5.20;99.90;;;;;;5045968;28;20055;-44
2023/01/14 01:34:09;;;;;;;17.40;2.30;;;5.20;99.90;;;;;;5046206;28;20041;-44
2023/01/14 01:36:35;;;;;;;16.00;1.80;;;5.20;99.90;;;;;;5050382;28;20049;-44
2023/01/14 01:39:01;;;;;;;15.55;3.42;;;5.20;99.90;;;;;;5049902;28;20776;-43
2023/01/14 01:41:29;;;;;;;19.88;2.95;;;5.20;99.90;;;;;;5049835;28;20056;-44
2023/01/14 01:44:08;;;;;;;23.13;2.75;;;6.10;99.90;;;;;;5050252;28;20052;-44
2023/01/14 01:46:35;;;;;;;17.42;2.97;;;5.30;99.90;;;;;;5049722;28;20477;-43
2023/01/14 01:49:10;;;;;;;25.15;2.45;;;5.40;99.90;;;;;;5049966;28;20041;-46
2023/01/14 01:51:43;;;;;;;22.30;2.35;;;5.40;99.90;;;;;;5049696;28;20041;-44
2023/01/14 01:54:09;;;;;;;19.00;1.50;;;6.30;99.90;;;;;;5049246;28;20044;-43
2023/01/14 01:56:36;;;;;;;21.08;2.58;;;6.30;99.90;;;;;;5048957;28;20045;-45
2023/01/14 01:59:06;;;;;;;22.27;4.35;;;5.50;99.90;;;;;;5049284;28;20115;-45
2023/01/14 02:01:32;;;;;;;25.30;3.42;;;5.50;99.90;;;;;;5048754;28;20562;-43
2023/01/14 02:03:59;;;;;;;23.58;4.25;;;5.40;99.90;;;;;;5049339;28;20102;-45
2023/01/14 02:06:25;;;;;;;21.42;2.47;;;5.60;99.90;;;;;;5049240;28;20360;-44
2023/01/14 02:08:53;;;;;;;19.45;2.40;;;5.80;99.90;;;;;;5049799;28;20047;-46
2023/01/14 02:11:37;;;;;;;16.02;2.10;;;5.60;99.90;;;;;;5049703;28;20049;-44
2023/01/14 02:14:24;;;;;;;18.23;1.83;;;5.60;99.90;;;;;;5050044;28;20429;-44
2023/01/14 02:17:17;;;;;;;24.42;3.08;;;5.60;99.90;;;;;;5049187;28;20053;-44
2023/01/14 02:20:08;;;;;;;23.73;2.78;;;5.70;99.90;;;;;;5049279;28;20041;-44
2023/01/14 02:22:52;;;;;;;22.30;2.83;;;5.70;99.90;;;;;;5049309;28;20056;-44
2023/01/14 02:25:39;;;;;;;22.15;4.85;;;5.70;99.90;;;;;;5049575;28;20052;-45
2023/01/14 02:28:21;;;;;;;25.02;3.03;;;5.70;99.90;;;;;;5049157;28;20512;-45
2023/01/14 02:30:55;;;;;;;25.90;3.20;;;5.70;99.90;;;;;;5049689;28;20118;-44
2023/01/14 02:33:27;;;;;;;20.60;1.92;;;5.80;99.90;;;;;;5049274;28;20045;-45
2023/01/14 02:36:22;;;;;;;15.77;1.80;;;5.70;99.90;;;;;;5048534;28;20051;-46
2023/01/14 02:39:02;;;;;;;21.45;2.10;;;5.70;99.90;;;;;;5048722;28;20149;-45
2023/01/14 02:44:29;;;;;;;24.08;1.73;;;5.70;99.90;;;;;;5048640;28;20051;-44
2023/01/14 02:47:02;;;;;;;15.45;1.67;;;6.60;99.90;;;;;;5047703;28;20056;-45
2023/01/14 02:49:32;;;;;;;18.95;2.13;;;5.60;99.90;;;;;;5049005;28;20040;-44
2023/01/14 02:51:59;;;;;;;17.88;2.53;;;5.60;99.90;;;;;;5048310;28;20084;-44
2023/01/14 02:54:25;;;;;;;19.33;2.17;;;6.30;99.90;;;;;;5048788;28;20044;-43
2023/01/14 02:56:54;;;;;;;23.65;2.22;;;5.40;99.90;;;;;;5047848;28;20490;-44
2023/01/14 02:59:26;;;;;;;14.10;2.00;;;5.50;99.90;;;;;;5048245;28;20045;-43
2023/01/14 03:02:15;;;;;;;16.88;1.60;;;5.40;99.90;;;;;;5048050;28;20045;-44
2023/01/14 03:04:59;;;;;;;24.27;2.85;;;5.50;99.90;;;;;;5048115;28;20442;-43
2023/01/14 03:07:53;;;;;;;18.30;2.05;;;5.50;99.90;;;;;;5048168;28;20071;-44
2023/01/14 03:10:21;;;;;;;23.38;2.00;;;5.50;99.90;;;;;;5048656;28;20124;-45
2023/01/14 03:13:14;;;;;;;20.27;2.35;;;5.40;99.90;;;;;;5048391;28;20051;-44
2023/01/14 03:15:53;;;;;;;24.92;2.30;;;5.40;99.90;;;;;;5047964;28;20564;-43
2023/01/14 03:18:32;;;;;;;18.88;2.75;;;6.20;99.90;;;;;;5047997;28;20045;-45
2023/01/14 03:21:07;;;;;;;23.25;3.25;;;5.30;99.90;;;;;;5048282;28;20040;-45
2023/01/14 03:23:38;;;;;;;23.85;2.88;;;5.20;99.90;;;;;;5048090;28;20673;-43
2023/01/14 03:26:08;;;;;;;17.25;2.55;;;5.40;99.90;;;;;;5047141;28;20771;-43
2023/01/14 03:28:38;;;;;;;15.35;2.00;;;5.00;99.90;;;;;;5047850;28;20049;-44
2023/01/14 03:31:18;;;;;;;18.45;2.17;;;5.00;99.90;;;;;;5047884;28;20497;-43
2023/01/14 03:33:55;;;;;;;19.40;2.17;;;5.10;99.90;;;;;;5047029;28;20044;-45
2023/01/14 03:36:23;;;;;;;24.13;2.70;;;5.90;99.90;;;;;;5047281;28;20110;-45
2023/01/14 03:39:03;;;;;;;19.45;2.03;;;4.80;99.90;;;;;;5047503;28;20121;-45
2023/01/14 03:44:35;;;;;;;22.52;1.95;;;4.70;99.90;;;;;;5047411;28;20059;-43
2023/01/14 03:47:01;;;;;;;24.33;1.65;;;4.60;99.90;;;;;;5047394;28;20045;-43
2023/01/14 03:49:27;;;;;;;20.35;2.88;;;4.80;99.90;;;;;;5047445;28;20048;-43
2023/01/14 03:52:12;;;;;;;28.33;2.75;;;4.50;99.90;;;;;;5047106;28;20824;-43
2023/01/14 03:54:43;;;;;;;18.85;3.25;;;4.50;99.90;;;;;;5047413;28;20045;-43
2023/01/14 03:57:17;;;;;;;17.65;2.25;;;4.50;99.90;;;;;;5047489;28;20048;-43
2023/01/14 04:00:01;;;;;;;19.65;1.88;;;4.50;99.90;;;;;;5046473;28;20049;-44
2023/01/14 04:02:29;;;;;;;25.40;2.63;;;4.60;99.90;;;;;;5047178;28;20033;-43
2023/01/14 04:04:55;;;;;;;18.27;2.13;;;4.50;99.90;;;;;;5046524;28;20486;-45
2023/01/14 04:07:23;;;;;;;26.67;3.10;;;4.40;99.90;;;;;;5046831;28;20057;-43
2023/01/14 04:09:49;;;;;;;26.23;4.15;;;4.40;99.90;;;;;;5046811;28;20049;-44
2023/01/14 04:12:14;;;;;;;13.07;1.90;;;4.40;99.90;;;;;;5047444;28;20041;-44
2023/01/14 04:17:25;;;;;;;19.23;2.58;;;4.40;99.90;;;;;;5046838;28;20367;-43
2023/01/14 04:19:50;;;;;;;22.00;2.10;;;4.50;99.90;;;;;;5046404;28;20045;-44
2023/01/14 04:22:16;;;;;;;18.70;2.28;;;4.80;99.90;;;;;;5046355;28;20049;-44
2023/01/14 04:24:42;;;;;;;22.38;2.28;;;4.50;99.90;;;;;;5046929;28;20095;-44
2023/01/14 04:27:08;;;;;;;23.40;2.33;;;4.50;99.90;;;;;;5046386;28;20493;-43
2023/01/14 04:29:33;;;;;;;17.98;3.15;;;4.50;99.90;;;;;;5046288;28;20049;-44
2023/01/14 04:31:59;;;;;;;24.40;2.17;;;4.70;99.90;;;;;;5046306;28;20132;-44
2023/01/14 04:34:25;;;;;;;22.00;2.47;;;4.60;99.90;;;;;;5046200;28;20044;-44
2023/01/14 04:36:50;;;;;;;19.95;1.52;;;4.50;99.90;;;;;;5046537;28;20676;-43
2023/01/14 04:39:16;;;;;;;20.50;1.38;;;4.50;99.90;;;;;;5046043;28;20037;-44
2023/01/14 04:44:26;;;;;;;13.90;1.58;;;4.40;99.90;;;;;;5046598;28;20059;-45
2023/01/14 04:46:52;;;;;;;23.13;1.63;;;4.40;99.90;;;;;;5046349;28;20052;-43
2023/01/14 04:49:17;;;;;;;13.00;1.40;;;4.20;99.90;;;;;;5046112;28;20045;-44
2023/01/14 04:51:43;;;;;;;11.13;1.40;;;4.30;99.90;;;;;;5046304;28;20043;-47
2023/01/14 04:54:09;;;;;;;18.98;1.75;;;4.30;99.90;;;;;;5046054;28;20087;-43
2023/01/14 04:56:34;;;;;;;20.42;1.42;;;4.30;99.90;;;;;;5044727;28;20041;-44
2023/01/14 04:59:02;;;;;;;14.93;1.67;;;4.60;99.90;;;;;;5046470;28;20060;-44
2023/01/14 05:01:28;;;;;;;17.05;2.33;;;4.30;99.90;;;;;;5046467;28;20672;-45
2023/01/14 05:03:58;;;;;;;17.30;1.92;;;4.30;99.90;;;;;;5046765;28;20048;-43
2023/01/14 05:06:25;;;;;;;21.77;2.10;;;4.20;99.90;;;;;;5046921;28;20132;-43
2023/01/14 05:08:50;;;;;;;16.25;2.15;;;4.10;99.90;;;;;;5046244;28;20044;-44
2023/01/14 05:11:16;;;;;;;19.65;1.92;;;4.10;99.90;;;;;;5052047;28;20041;-45
2023/01/14 05:13:42;;;;;;;24.55;2.03;;;4.10;99.90;;;;;;5052938;28;20054;-44
2023/01/14 05:16:07;;;;;;;26.35;2.38;;;4.10;99.90;;;;;;5052980;28;20053;-43
2023/01/14 05:18:33;;;;;;;22.77;3.83;;;4.20;99.90;;;;;;5053511;28;20564;-43
2023/01/14 05:20:59;;;;;;;22.08;3.15;;;4.20;99.90;;;;;;5053212;28;20044;-44
2023/01/14 05:23:24;;;;;;;23.52;2.95;;;4.20;99.90;;;;;;5052479;28;20049;-44
2023/01/14 05:25:50;;;;;;;29.45;3.08;;;4.40;99.90;;;;;;5053617;28;20867;-43
2023/01/14 05:28:17;;;;;;;30.95;3.85;;;4.30;99.90;;;;;;5052953;28;20157;-43
2023/01/14 05:30:43;;;;;;;29.70;2.88;;;4.30;99.90;;;;;;5053163;28;20116;-44
2023/01/14 05:33:09;;;;;;;23.25;3.22;;;4.40;99.90;;;;;;5052516;28;20459;-44
2023/01/14 05:35:35;;;;;;;30.15;4.57;;;4.30;99.90;;;;;;5052328;28;20045;-44
2023/01/14 05:38:01;;;;;;;28.17;3.20;;;4.40;99.90;;;;;;5052907;28;20047;-43
2023/01/14 05:40:26;;;;;;;31.77;3.70;;;4.40;99.90;;;;;;5053163;28;20036;-44
2023/01/14 05:45:38;;;;;;;26.48;2.70;;;4.40;99.90;;;;;;5053168;28;20051;-43
2023/01/14 05:48:05;;;;;;;31.42;4.05;;;4.40;99.90;;;;;;5053132;28;20055;-44
2023/01/14 05:50:31;;;;;;;24.73;3.50;;;4.50;99.90;;;;;;5052939;28;20045;-44
2023/01/14 05:52:56;;;;;;;23.88;3.38;;;4.50;99.90;;;;;;5053219;28;20438;-43
2023/01/14 05:55:22;;;;;;;28.55;3.53;;;4.40;99.90;;;;;;5052829;28;20041;-44
2023/01/14 05:57:48;;;;;;;23.80;3.10;;;4.40;99.90;;;;;;5052727;28;20045;-43
2023/01/14 06:08:29;;;;;;;35.42;5.85;;;5.00;99.90;;;;;;5052784;28;20059;-44
2023/01/14 06:10:55;;;;;;;33.70;4.88;;;4.40;99.90;;;;;;5052779;28;20037;-43
2023/01/14 06:13:24;;;;;;;29.85;6.43;;;4.40;99.90;;;;;;5052514;28;20108;-44
2023/01/14 06:15:55;;;;;;;37.00;6.53;;;4.30;99.90;;;;;;5052395;28;20105;-44
2023/01/14 06:18:23;;;;;;;33.78;7.18;;;4.40;99.90;;;;;;5052688;28;20048;-43
2023/01/14 06:20:53;;;;;;;28.88;6.18;;;4.40;99.90;;;;;;5051471;28;20557;-44
2023/01/14 06:23:21;;;;;;;31.42;6.32;;;4.40;99.90;;;;;;5048946;28;20076;-45
2023/01/14 06:25:48;;;;;;;24.63;6.15;;;4.40;99.90;;;;;;5049926;28;20197;-44
2023/01/14 06:28:15;;;;;;;33.20;6.30;;;4.30;99.90;;;;;;5049348;28;20563;-44
2023/01/14 06:30:42;;;;;;;39.20;6.68;;;4.30;99.90;;;;;;5049265;28;20544;-44
2023/01/14 06:33:08;;;;;;;25.20;4.57;;;4.30;99.90;;;;;;5049310;28;20033;-43
2023/01/14 06:35:39;;;;;;;33.95;6.68;;;4.30;99.90;;;;;;5049667;28;20037;-44
2023/01/14 06:38:04;;;;;;;27.70;5.35;;;4.30;99.90;;;;;;5049531;28;20445;-45
2023/01/14 06:40:30;;;;;;;35.30;5.72;;;4.20;99.90;;;;;;5048706;28;20053;-44
2023/01/14 06:42:56;;;;;;;39.80;8.30;;;4.40;99.90;;;;;;5049018;28;20049;-44
2023/01/14 06:45:23;;;;;;;33.65;5.63;;;4.20;99.90;;;;;;5048754;28;20041;-45
2023/01/14 06:47:48;;;;;;;28.80;5.35;;;4.20;99.90;;;;;;5049047;28;20040;-44
2023/01/14 06:50:17;;;;;;;40.92;5.35;;;4.20;99.90;;;;;;5048939;28;20568;-43
2023/01/14 06:52:43;;;;;;;30.85;5.35;;;4.20;99.90;;;;;;5048962;28;20109;-43
2023/01/14 06:55:08;;;;;;;26.17;6.10;;;4.20;99.90;;;;;;5048742;28;20045;-44
2023/01/14 06:57:34;;;;;;;26.48;5.80;;;4.20;99.90;;;;;;5049007;28;20037;-43
2023/01/14 07:00:00;;;;;;;36.95;6.63;;;4.20;99.90;;;;;;5048824;28;20045;-43
2023/01/14 07:02:25;;;;;;;33.67;5.68;;;4.20;99.90;;;;;;5048832;28;20052;-43
2023/01/14 07:04:51;;;;;;;33.25;4.85;;;4.30;99.90;;;;;;5048837;28;20123;-44
2023/01/14 07:07:18;;;;;;;39.42;7.00;;;4.20;99.90;;;;;;5048417;28;20118;-43
2023/01/14 07:09:44;;;;;;;28.27;5.80;;;4.20;99.90;;;;;;5048415;28;20037;-44
2023/01/14 07:12:10;;;;;;;32.88;5.53;;;4.10;99.90;;;;;;5030360;28;20051;-44
2023/01/14 07:14:35;;;;;;;46.03;5.75;;;4.20;99.90;;;;;;5048042;28;20138;-44
2023/01/14 07:17:03;;;;;;;40.67;5.57;;;4.40;99.90;;;;;;5048473;28;20055;-43
2023/01/14 07:19:29;;;;;;;33.92;7.60;;;4.40;99.90;;;;;;5048177;28;20075;-44
2023/01/14 07:21:54;;;;;;;31.77;6.03;;;5.30;99.90;;;;;;5048282;28;20471;-44
2023/01/14 07:24:20;;;;;;;33.92;5.45;;;4.40;99.90;;;;;;5048398;28;20143;-43
2023/01/14 07:26:46;;;;;;;44.60;7.60;;;4.40;99.90;;;;;;5048319;28;20557;-43
2023/01/14 07:29:12;;;;;;;38.33;6.05;;;4.40;99.90;;;;;;5048015;28;20120;-43
2023/01/14 07:31:37;;;;;;;32.63;5.95;;;4.60;99.90;;;;;;5047558;28;20576;-43
2023/01/14 07:34:03;;;;;;;42.40;7.10;;;4.50;99.90;;;;;;5047392;28;20041;-46
2023/01/14 07:36:29;;;;;;;38.65;5.97;;;4.60;99.90;;;;;;5047293;28;20041;-44
2023/01/14 07:38:55;;;;;;;30.77;5.53;;;4.50;99.90;;;;;;5047731;28;20055;-44
2023/01/14 07:41:22;;;;;;;37.63;7.35;;;4.70;99.90;;;;;;5048149;28;20049;-44
2023/01/14 07:43:48;;;;;;;36.13;5.13;;;4.70;99.90;;;;;;5047657;28;20653;-45
2023/01/14 07:46:16;;;;;;;33.50;5.70;;;4.60;99.90;;;;;;5047609;28;20712;-43
2023/01/14 07:48:44;;;;;;;32.92;4.93;;;4.70;99.90;;;;;;5047471;28;20459;-43
2023/01/14 07:51:11;;;;;;;30.35;4.32;;;4.70;99.90;;;;;;5029606;28;20049;-43
2023/01/14 07:53:37;;;;;;;37.38;5.35;;;4.80;99.90;;;;;;5047494;28;20033;-45
2023/01/14 07:56:05;;;;;;;28.35;5.15;;;5.80;99.90;;;;;;5047336;28;20495;-44
2023/01/14 07:58:32;;;;;;;24.63;4.45;;;4.90;99.90;;;;;;5046916;28;20831;-43
2023/01/14 08:00:58;;;;;;;31.95;5.28;;;4.80;99.90;;;;;;5047889;28;20045;-43
2023/01/14 08:03:24;;;;;;;23.38;4.05;;;4.80;99.90;;;;;;5047707;28;20114;-44
2023/01/14 08:05:51;;;;;;;29.92;4.38;;;5.00;99.90;;;;;;5029929;28;20037;-43
2023/01/14 08:08:17;;;;;;;32.17;5.30;;;5.20;99.90;;;;;;5047084;28;20076;-44
2023/01/14 08:10:43;;;;;;;31.98;4.38;;;5.70;99.90;;;;;;5047218;28;20041;-44
2023/01/14 08:13:13;;;;;;;31.70;4.97;;;4.90;99.90;;;;;;5047715;28;20041;-45
2023/01/14 08:15:38;;;;;;;29.65;3.80;;;5.00;99.90;;;;;;5046878;28;20140;-46
2023/01/14 08:18:04;;;;;;;29.65;4.28;;;4.90;99.90;;;;;;5047646;28;20064;-44
2023/01/14 08:20:30;;;;;;;34.03;5.25;;;5.00;99.90;;;;;;5047251;28;20044;-44
2023/01/14 08:23:00;;;;;;;30.38;4.93;;;5.10;99.90;;;;;;5047521;28;20494;-43
2023/01/14 08:25:27;;;;;;;22.52;4.10;;;5.00;99.90;;;;;;5047077;28;20043;-44
2023/01/14 08:27:53;;;;;;;32.90;4.68;;;5.00;99.90;;;;;;5046852;28;20052;-43
2023/01/14 08:30:19;;;;;;;31.95;4.57;;;5.10;99.90;;;;;;5047545;28;20041;-43
2023/01/14 08:32:45;;;;;;;23.40;3.95;;;5.20;99.90;;;;;;5046781;28;20501;-43
2023/01/14 08:35:10;;;;;;;25.98;5.68;;;5.10;99.90;;;;;;5047242;28;20048;-43
2023/01/14 08:37:36;;;;;;;28.95;4.00;;;5.10;99.90;;;;;;5047083;28;20045;-43
2023/01/14 08:40:02;;;;;;;28.00;3.63;;;5.20;99.90;;;;;;5046917;28;20056;-43
2023/01/14 08:42:28;;;;;;;23.77;3.95;;;5.20;99.90;;;;;;5047504;28;20041;-44
2023/01/14 08:44:54;;;;;;;26.70;3.88;;;5.20;99.90;;;;;;5046865;28;20490;-44
2023/01/14 08:47:19;;;;;;;28.27;3.75;;;5.10;99.90;;;;;;5046947;28;20387;-45
2023/01/14 08:49:45;;;;;;;27.33;3.20;;;5.10;99.90;;;;;;5046652;28;20041;-43
2023/01/14 08:52:11;;;;;;;30.98;4.05;;;6.00;99.90;;;;;;5046986;28;20052;-44
2023/01/14 08:54:37;;;;;;;28.48;5.13;;;5.20;99.90;;;;;;5046580;28;20170;-44
2023/01/14 08:57:03;;;;;;;29.05;3.30;;;5.30;99.90;;;;;;5045003;28;20097;-44
2023/01/14 08:59:28;;;;;;;33.38;4.95;;;5.20;99.90;;;;;;5046775;28;20052;-43
2023/01/14 09:01:54;;;;;;;29.25;4.78;;;5.40;99.90;;;;;;5046618;28;20056;-44
2023/01/14 09:04:21;;;;;;;25.80;3.20;;;5.30;99.90;;;;;;5046293;28;20449;-44
2023/01/14 09:17:59;;;;;;;33.92;4.65;;;5.30;99.90;;;;;;5046649;28;20053;-43
2023/01/14 09:20:33;;;;;;;37.00;4.05;;;5.30;99.90;;;;;;5046606;28;20143;-44
2023/01/14 09:23:00;;;;;;;24.50;3.05;;;5.40;99.90;;;;;;5046826;28;20049;-44
2023/01/14 09:25:26;;;;;;;27.45;3.70;;;5.50;99.90;;;;;;5046429;28;20044;-44
2023/01/14 09:27:51;;;;;;;17.10;3.63;;;5.30;99.90;;;;;;5046490;28;20044;-44
2023/01/14 09:30:17;;;;;;;22.70;5.50;;;5.40;99.90;;;;;;5046942;28;20864;-44
2023/01/14 09:32:44;;;;;;;34.88;4.72;;;5.40;99.90;;;;;;5046130;28;20159;-44
2023/01/14 09:35:10;;;;;;;26.17;3.50;;;5.30;99.90;;;;;;5046850;28;20052;-43
2023/01/14 09:37:36;;;;;;;27.67;3.28;;;5.50;99.90;;;;;;5046936;28;20041;-43
2023/01/14 09:40:03;;;;;;;30.33;4.30;;;5.40;99.90;;;;;;5047045;28;20151;-44
2023/01/14 09:42:33;;;;;;;28.27;4.13;;;5.50;99.90;;;;;;5046554;28;20040;-44
2023/01/14 09:45:35;;;;;;;19.95;3.40;;;5.50;99.90;;;;;;5045701;28;20049;-44
2023/01/14 09:48:06;;;;;;;27.73;3.42;;;5.40;99.90;;;;;;4983826;28;20061;-44
2023/01/14 09:50:35;;;;;;;26.38;3.40;;;5.50;99.90;;;;;;5035912;28;20045;-46
2023/01/14 09:53:05;;;;;;;26.85;3.05;;;5.50;99.90;;;;;;5046154;28;20053;-44
2023/01/14 09:55:43;;;;;;;24.48;4.53;;;5.50;99.90;;;;;;5045816;28;20459;-45
2023/01/14 09:58:23;;;;;;;18.73;2.65;;;5.50;99.90;;;;;;5049713;28;20037;-45
2023/01/14 10:01:12;;;;;;;18.95;3.45;;;5.50;99.90;;;;;;5049958;28;20041;-44
2023/01/14 10:03:51;;;;;;;16.48;2.78;;;5.70;99.90;;;;;;5024150;28;20118;-44
2023/01/14 10:06:18;;;;;;;29.55;4.38;;;5.70;99.90;;;;;;5046754;28;20094;-44
2023/01/14 10:08:54;;;;;;;20.38;3.95;;;5.70;99.90;;;;;;5046766;28;20063;-44
2023/01/14 10:11:22;;;;;;;21.15;4.00;;;5.70;99.90;;;;;;5047258;28;20053;-46
2023/01/14 10:13:54;;;;;;;20.05;4.25;;;5.70;99.90;;;;;;5046945;28;20053;-45
2023/01/14 10:16:33;;;;;;;16.25;4.53;;;5.60;99.90;;;;;;5046372;28;20697;-46
2023/01/14 10:19:20;;;;;;;27.17;4.53;;;5.80;99.90;;;;;;5046560;28;20072;-45
2023/01/14 10:21:57;;;;;;;18.48;3.65;;;5.80;99.90;;;;;;5047016;28;20118;-44
2023/01/14 10:24:23;;;;;;;13.52;3.58;;;5.80;99.90;;;;;;5046915;28;20033;-45
2023/01/14 10:26:50;;;;;;;13.15;3.78;;;5.70;99.90;;;;;;5046455;28;20399;-44
2023/01/14 10:29:18;;;;;;;15.85;3.22;;;5.70;99.90;;;;;;5046716;28;20134;-44
2023/01/14 10:31:59;;;;;;;21.73;4.03;;;5.70;99.90;;;;;;5046133;28;20044;-45
2023/01/14 10:34:39;;;;;;;15.07;3.97;;;5.80;99.90;;;;;;5045676;28;20708;-44
2023/01/14 10:37:08;;;;;;;15.60;4.30;;;6.00;99.90;;;;;;5046121;28;20045;-44
2023/01/14 10:39:35;;;;;;;17.05;4.25;;;5.80;99.90;;;;;;5046355;28;20091;-43
2023/01/14 10:42:03;;;;;;;13.30;3.47;;;6.70;99.90;;;;;;5046554;28;20144;-43
2023/01/14 10:44:33;;;;;;;13.68;3.70;;;6.00;99.90;;;;;;5046695;28;20051;-44
2023/01/14 10:47:07;;;;;;;14.85;4.20;;;6.00;99.90;;;;;;5046119;28;20441;-44
2023/01/14 10:49:55;;;;;;;13.63;4.82;;;6.20;99.90;;;;;;5046299;28;20695;-43
2023/01/14 10:52:29;;;;;;;13.52;4.40;;;6.20;99.90;;;;;;5036049;28;20059;-39
2023/01/14 10:54:55;;;;;;;17.30;4.10;;;6.20;99.90;;;;;;5021198;28;20041;-39
2023/01/14 10:57:21;;;;;;;11.90;4.75;;;6.30;99.90;;;;;;5042379;28;20056;-39
2023/01/14 10:59:52;;;;;;;12.40;4.53;;;7.20;99.90;;;;;;5025825;28;20056;-40
2023/01/14 11:02:39;;;;;;;16.27;5.20;;;6.30;99.90;;;;;;5043618;28;20044;-40
2023/01/14 11:05:24;;;;;;;13.57;4.25;;;6.40;99.90;;;;;;5016159;28;20053;-40
2023/01/14 11:07:51;;;;;;;13.90;3.78;;;6.40;99.90;;;;;;5040428;28;20605;-40
2023/01/14 11:10:24;;;;;;;12.18;3.97;;;6.70;99.90;;;;;;5043169;28;20033;-40
2023/01/14 11:12:53;;;;;;;;;;;6.50;99.90;;;;;;5043771;28;20041;-40
2023/01/14 11:15:35;;;;;;;7.22;3.28;;;6.60;99.90;;;;;;5042749;28;20298;-45
2023/01/14 11:18:19;;;;;;;9.77;3.35;;;6.70;99.90;;;;;;5043551;28;20053;-42
2023/01/14 11:21:07;;;;;;;9.40;3.40;;;8.70;99.90;;;;;;5043303;28;20106;-42
2023/01/14 11:23:39;;;;;;;12.45;3.08;;;6.80;99.90;;;;;;5043503;28;20485;-41
2023/01/14 11:26:08;;;;;;;13.20;4.70;;;6.80;99.90;;;;;;5043178;28;20041;-43
2023/01/14 11:28:42;;;;;;;8.10;3.78;;;7.00;99.90;;;;;;5043078;28;20503;-48
2023/01/14 11:31:08;;;;;;;7.53;2.85;;;6.80;99.90;;;;;;5043369;28;20056;-45
2023/01/14 11:33:34;;;;;;;10.32;3.92;;;6.70;99.90;;;;;;5043032;28;20682;-44
2023/01/14 11:36:02;;;;;;;10.55;4.15;;;7.80;99.90;;;;;;5043112;28;20036;-44
2023/01/14 11:38:29;;;;;;;14.30;4.97;;;6.70;99.90;;;;;;5043158;28;20485;-44
2023/01/14 11:44:05;;;;;;;11.30;3.33;;;6.50;99.90;;;;;;5042655;28;20064;-44
2023/01/14 11:46:33;;;;;;;7.65;3.17;;;6.70;99.90;;;;;;5035021;28;20093;-47
2023/01/14 11:49:17;;;;;;;9.38;2.40;;;6.70;99.90;;;;;;5042661;28;20044;-45
2023/01/14 11:52:05;;;;;;;8.25;2.53;;;6.70;99.90;;;;;;5042653;28;20072;-46
2023/01/14 11:54:36;;;;;;;9.02;2.10;;;6.70;99.90;;;;;;5023042;28;20931;-45
2023/01/14 11:57:04;;;;;;;8.65;2.03;;;6.60;99.90;;;;;;5042424;28;20147;-47
2023/01/14 11:59:37;;;;;;;9.68;2.35;;;6.70;99.90;;;;;;5042941;28;20130;-44
2023/01/14 12:02:20;;;;;;;5.60;2.50;;;7.40;99.90;;;;;;5042409;28;20052;-42
2023/01/14 12:05:03;;;;;;;7.45;2.13;;;6.70;99.90;;;;;;5033530;28;20499;-43
2023/01/14 12:07:52;;;;;;;7.97;2.50;;;6.80;99.90;;;;;;5041651;28;20049;-42
2023/01/14 12:10:22;;;;;;;7.50;1.73;;;6.80;99.90;;;;;;5042566;28;20040;-42
2023/01/14 12:19:05;;;;;;;8.65;2.88;;;6.80;99.90;;;;;;5041519;28;20092;-42
2023/01/14 12:21:37;;;;;;;5.88;1.30;;;7.20;99.90;;;;;;5042064;28;20053;-43
2023/01/14 12:24:10;;;;;;;6.07;1.13;;;6.80;99.90;;;;;;5041830;28;20056;-43
2023/01/14 12:26:41;;;;;;;8.05;1.55;;;6.80;99.90;;;;;;5042578;28;20037;-43
2023/01/14 12:29:13;;;;;;;8.13;1.52;;;7.10;99.90;;;;;;5041951;28;20047;-43
2023/01/14 12:31:44;;;;;;;5.88;1.10;;;6.90;99.90;;;;;;5046314;28;20079;-41
2023/01/14 12:34:37;;;;;;;10.63;2.10;;;6.80;99.90;;;;;;5045392;28;20481;-40
2023/01/14 12:37:39;;;;;;;9.80;2.33;;;6.90;99.90;;;;;;5045671;28;20452;-41
2023/01/14 12:46:12;;;;;;;5.70;1.30;;;7.20;99.90;;;;;;5045901;28;20063;-43
2023/01/14 12:48:38;;;;;;;8.30;1.60;;;7.00;99.90;;;;;;5045923;28;20064;-42
2023/01/14 12:51:07;;;;;;;6.60;1.73;;;7.00;99.90;;;;;;5045631;28;20075;-41
2023/01/14 12:53:52;;;;;;;8.13;1.90;;;7.00;99.90;;;;;;5045712;28;20525;-42
2023/01/14 12:56:26;;;;;;;7.25;2.20;;;7.10;99.90;;;;;;5045505;28;20161;-42
2023/01/14 12:59:05;;;;;;;4.45;1.40;;;7.10;99.90;;;;;;5045348;28;20081;-41
2023/01/14 13:01:55;;;;;;;6.57;1.35;;;7.30;99.90;;;;;;5045765;28;20057;-41
2023/01/14 13:04:53;;;;;;;7.18;1.45;;;7.20;99.90;;;;;;5045709;28;20485;-41
2023/01/14 13:07:26;;;;;;;4.45;1.35;;;7.20;99.90;;;;;;4990011;28;20054;-41
2023/01/14 13:09:58;;;;;;;4.50;1.30;;;7.20;99.90;;;;;;5045961;28;20490;-42
2023/01/14 13:12:32;;;;;;;3.67;1.35;;;7.30;99.90;;;;;;5045505;28;20123;-41
2023/01/14 13:15:03;;;;;;;5.47;1.58;;;7.30;99.90;;;;;;5046055;28;20136;-40
2023/01/14 13:17:33;;;;;;;7.25;1.42;;;7.40;99.90;;;;;;5045774;28;20064;-41
2023/01/14 13:20:18;;;;;;;5.88;1.70;;;7.40;99.90;;;;;;5045833;28;20479;-41
2023/01/14 13:22:48;;;;;;;5.72;1.45;;;7.70;99.90;;;;;;5045746;28;20122;-42
2023/01/14 13:25:40;;;;;;;4.53;1.50;;;7.50;99.90;;;;;;5045518;28;20053;-41
2023/01/14 13:28:12;;;;;;;7.45;1.77;;;7.50;99.90;;;;;;5045670;28;20045;-40
2023/01/14 13:31:13;;;;;;;3.60;1.00;;;7.60;99.90;;;;;;5046463;28;20049;-41
2023/01/14 13:33:39;;;;;;;4.82;1.17;;;7.50;99.90;;;;;;5049467;28;20049;-41
2023/01/14 13:36:08;;;;;;;3.67;1.25;;;7.70;99.90;;;;;;5049317;28;20045;-40
2023/01/14 13:38:42;;;;;;;4.90;1.60;;;7.70;99.90;;;;;;5049370;28;20044;-41
2023/01/14 13:41:11;;;;;;;5.38;1.45;;;7.30;99.90;;;;;;5049863;28;20649;-41
2023/01/14 13:43:47;;;;;;;4.38;1.30;;;8.70;99.90;;;;;;5049664;28;20418;-40
2023/01/14 13:46:28;;;;;;;5.15;1.25;;;7.90;99.90;;;;;;5049482;28;20056;-43
2023/01/14 13:48:59;;;;;;;6.32;1.02;;;7.90;99.90;;;;;;5049537;28;20047;-41
2023/01/14 13:51:38;;;;;;;5.97;1.17;;;8.10;99.90;;;;;;5049293;28;20045;-41
2023/01/14 13:54:10;;;;;;;3.78;0.88;;;7.80;99.90;;;;;;5049345;28;20275;-41